createdAt,value
2018-12-04T00:00:22.714Z,1.40
2018-12-04T00:02:50.182Z,1.37
2018-12-04T00:05:17.666Z,1.40
2018-12-04T00:07:45.119Z,2.13
2018-12-04T00:10:12.575Z,1.00
2018-12-04T00:12:40.043Z,0.90
2018-12-04T00:15:07.570Z,0.90
2018-12-04T00:17:35.039Z,1.03
2018-12-04T00:20:02.530Z,0.93
2018-12-04T00:22:29.986Z,1.00
2018-12-04T00:24:57.563Z,0.83
2018-12-04T00:27:25.023Z,1.20
2018-12-04T00:29:52.493Z,1.10
2018-12-04T00:32:19.962Z,1.47
2018-12-04T00:34:47.462Z,1.40
2018-12-04T00:37:16.731Z,1.53
2018-12-04T00:39:44.275Z,1.47
2018-12-04T00:42:11.751Z,1.57
2018-12-04T00:44:39.199Z,1.50
2018-12-04T00:47:06.665Z,1.17
2018-12-04T00:49:34.205Z,1.13
2018-12-04T00:52:01.660Z,1.67
2018-12-04T00:54:29.126Z,1.30
2018-12-04T00:56:56.617Z,1.60
2018-12-04T00:59:25.004Z,1.40
2018-12-04T01:01:52.459Z,1.50
2018-12-04T01:04:19.915Z,1.13
2018-12-04T01:06:47.493Z,1.40
2018-12-04T01:09:14.972Z,1.70
2018-12-04T01:11:43.218Z,1.20
2018-12-04T01:14:10.686Z,1.50
2018-12-04T01:16:38.150Z,1.40
2018-12-04T01:19:05.601Z,1.57
2018-12-04T01:21:33.134Z,1.53
2018-12-04T01:24:00.601Z,1.53
2018-12-04T01:26:28.068Z,1.23
2018-12-04T01:28:55.524Z,1.93
2018-12-04T01:31:23.003Z,1.47
2018-12-04T01:33:50.470Z,1.57
2018-12-04T01:36:17.936Z,1.53
2018-12-04T01:38:45.407Z,1.57
2018-12-04T01:41:12.972Z,1.40
2018-12-04T01:43:40.520Z,2.10
2018-12-04T01:46:08.005Z,1.27
2018-12-04T01:48:35.553Z,1.00
2018-12-04T01:51:03.791Z,1.23
2018-12-04T01:53:31.256Z,1.30
2018-12-04T01:55:58.767Z,1.20
2018-12-04T01:58:26.600Z,1.50
2018-12-04T02:00:54.066Z,1.60
2018-12-04T02:03:22.822Z,1.30
2018-12-04T02:05:51.055Z,1.37
2018-12-04T02:08:18.551Z,1.00
2018-12-04T02:10:47.534Z,1.30
2018-12-04T02:13:15.015Z,1.70
2018-12-04T02:15:43.233Z,1.37
2018-12-04T02:18:10.681Z,1.30
2018-12-04T02:20:38.185Z,1.30
2018-12-04T02:23:05.761Z,0.90
2018-12-04T02:25:33.241Z,1.10
2018-12-04T02:28:01.453Z,1.20
2018-12-04T02:30:28.915Z,1.10
2018-12-04T02:32:56.377Z,1.53
2018-12-04T02:35:23.883Z,1.17
2018-12-04T02:37:51.350Z,1.00
2018-12-04T02:40:18.803Z,1.47
2018-12-04T02:42:46.287Z,1.40
2018-12-04T02:45:15.341Z,1.00
2018-12-04T02:47:42.826Z,1.20
2018-12-04T02:50:10.280Z,1.43
2018-12-04T02:52:37.734Z,1.83
2018-12-04T02:55:05.323Z,1.00
2018-12-04T02:57:32.780Z,1.20
2018-12-04T03:00:00.344Z,1.40
2018-12-04T03:02:27.901Z,1.03
2018-12-04T03:04:55.355Z,1.10
2018-12-04T03:07:22.821Z,1.17
2018-12-04T03:09:50.293Z,1.17
2018-12-04T03:12:17.767Z,1.07
2018-12-04T03:14:46.355Z,1.47
2018-12-04T03:17:15.345Z,1.30
2018-12-04T03:19:42.893Z,2.00
2018-12-04T03:22:10.362Z,1.30
2018-12-04T03:24:37.811Z,1.20
2018-12-04T03:27:05.279Z,2.03
2018-12-04T03:29:32.742Z,1.67
2018-12-04T03:32:00.204Z,1.13
2018-12-04T03:34:27.660Z,1.07
2018-12-04T03:36:55.134Z,1.00
2018-12-04T03:39:22.598Z,1.00
2018-12-04T03:41:50.157Z,1.00
2018-12-04T03:44:17.618Z,1.00
2018-12-04T03:46:45.075Z,0.90
2018-12-04T03:49:12.532Z,1.20
2018-12-04T03:51:40.013Z,0.90
2018-12-04T03:54:07.581Z,0.97
2018-12-04T03:56:35.844Z,1.07
2018-12-04T03:59:03.861Z,1.27
2018-12-04T04:01:31.313Z,1.00
2018-12-04T04:03:59.568Z,1.10
2018-12-04T04:06:27.038Z,1.03
2018-12-04T04:08:54.510Z,1.00
2018-12-04T04:11:22.753Z,1.03
2018-12-04T04:13:50.207Z,1.33
2018-12-04T04:16:17.699Z,0.90
2018-12-04T04:18:45.260Z,0.90
2018-12-04T04:21:12.720Z,1.23
2018-12-04T04:23:40.160Z,1.00
2018-12-04T04:26:07.628Z,1.10
2018-12-04T04:28:35.078Z,0.97
2018-12-04T04:31:02.582Z,0.90
2018-12-04T04:33:30.127Z,1.10
2018-12-04T04:35:57.586Z,0.87
2018-12-04T04:38:25.062Z,1.00
2018-12-04T04:40:54.025Z,1.33
2018-12-04T04:43:21.517Z,0.77
2018-12-04T04:45:48.970Z,1.03
2018-12-04T04:48:16.434Z,1.50
2018-12-04T04:50:43.911Z,1.50
2018-12-04T04:53:11.474Z,1.50
2018-12-04T04:55:38.941Z,0.97
2018-12-04T04:58:06.496Z,1.40
2018-12-04T05:00:33.959Z,1.00
2018-12-04T05:03:01.422Z,1.20
2018-12-04T05:05:28.886Z,1.20
2018-12-04T05:07:56.361Z,1.23
2018-12-04T05:10:24.589Z,1.30
2018-12-04T05:12:53.396Z,1.40
2018-12-04T05:15:20.864Z,1.33
2018-12-04T05:17:48.325Z,1.50
2018-12-04T05:20:15.896Z,1.23
2018-12-04T05:22:43.462Z,1.17
2018-12-04T05:25:10.923Z,1.40
2018-12-04T05:27:38.391Z,1.00
2018-12-04T05:30:05.957Z,0.90
2018-12-04T05:32:33.421Z,1.00
2018-12-04T05:35:00.866Z,1.47
2018-12-04T05:37:28.338Z,1.00
2018-12-04T05:39:55.888Z,1.30
2018-12-04T05:42:23.354Z,1.30
2018-12-04T05:44:50.808Z,1.20
2018-12-04T05:47:18.294Z,1.20
2018-12-04T05:49:45.765Z,0.90
2018-12-04T05:52:13.979Z,1.10
2018-12-04T05:54:41.433Z,1.20
2018-12-04T05:57:08.951Z,1.00
2018-12-04T05:59:37.159Z,1.47
2018-12-04T06:02:05.404Z,1.03
2018-12-04T06:04:32.875Z,0.97
2018-12-04T06:07:00.313Z,1.10
2018-12-04T06:09:27.773Z,0.90
2018-12-04T06:11:55.244Z,1.27
2018-12-04T06:14:22.699Z,0.90
2018-12-04T06:16:50.150Z,1.10
2018-12-04T06:19:17.615Z,1.17
2018-12-04T06:21:45.071Z,1.10
2018-12-04T06:24:12.581Z,1.17
2018-12-04T06:26:40.802Z,1.43
2018-12-04T06:29:08.247Z,0.97
2018-12-04T06:31:35.710Z,1.23
2018-12-04T06:34:03.761Z,1.13
2018-12-04T06:36:33.798Z,1.00
2018-12-04T06:39:02.232Z,0.90
2018-12-04T06:41:29.698Z,1.00
2018-12-04T06:43:57.185Z,1.10
2018-12-04T06:46:24.640Z,1.27
2018-12-04T06:48:52.107Z,0.90
2018-12-04T06:51:21.064Z,1.42
2018-12-04T06:53:48.541Z,1.50
2018-12-04T06:56:15.988Z,1.47
2018-12-04T06:58:43.432Z,1.10
2018-12-04T07:01:10.904Z,0.98
2018-12-04T07:03:38.390Z,0.90
2018-12-04T07:06:05.869Z,1.30
2018-12-04T07:08:33.426Z,1.10
2018-12-04T07:11:00.883Z,1.30
2018-12-04T07:13:28.453Z,1.40
2018-12-04T07:15:55.919Z,1.00
2018-12-04T07:18:23.393Z,1.50
2018-12-04T07:20:50.862Z,1.20
2018-12-04T07:23:18.403Z,1.10
2018-12-04T07:25:45.946Z,1.10
2018-12-04T07:28:13.410Z,1.20
2018-12-04T07:30:40.896Z,1.10
2018-12-04T07:33:08.370Z,1.37
2018-12-04T07:35:35.904Z,1.13
2018-12-04T07:38:03.604Z,0.88
2018-12-04T07:40:31.861Z,1.20
2018-12-04T07:42:59.313Z,1.30
2018-12-04T07:45:26.786Z,1.00
2018-12-04T07:47:54.242Z,1.27
2018-12-04T07:50:21.709Z,1.23
2018-12-04T07:52:49.173Z,1.43
2018-12-04T07:55:16.730Z,1.30
2018-12-04T07:57:44.302Z,0.80
2018-12-04T08:00:11.886Z,0.90
2018-12-04T08:02:40.114Z,1.10
2018-12-04T08:05:07.568Z,1.07
2018-12-04T08:07:35.044Z,1.27
2018-12-04T08:10:02.535Z,1.10
2018-12-04T08:12:29.986Z,1.20
2018-12-04T08:14:57.453Z,1.40
2018-12-04T08:17:25.016Z,0.93
2018-12-04T08:19:52.473Z,1.30
2018-12-04T08:22:19.938Z,1.17
2018-12-04T08:24:47.400Z,0.87
2018-12-04T08:27:14.970Z,1.10
2018-12-04T08:29:42.418Z,0.80
2018-12-04T08:32:10.002Z,1.13
2018-12-04T08:34:37.452Z,0.80
2018-12-04T08:37:05.018Z,0.97
2018-12-04T08:39:32.587Z,1.17
2018-12-04T08:42:00.054Z,0.90
2018-12-04T08:44:27.506Z,0.90
2018-12-04T08:46:55.783Z,1.30
2018-12-04T08:49:23.240Z,0.93
2018-12-04T08:51:50.702Z,1.30
2018-12-04T08:54:18.274Z,1.20
2018-12-04T08:56:45.715Z,1.03
2018-12-04T08:59:13.203Z,1.00
2018-12-04T09:01:40.658Z,0.90
2018-12-04T09:04:08.218Z,1.10
2018-12-04T09:06:35.688Z,1.40
2018-12-04T09:09:04.329Z,0.90
2018-12-04T09:11:31.792Z,1.30
2018-12-04T09:13:59.262Z,1.40
2018-12-04T09:16:26.767Z,1.40
2018-12-04T09:18:54.368Z,1.20
2018-12-04T09:21:21.823Z,1.13
2018-12-04T09:23:50.063Z,1.10
2018-12-04T09:26:17.508Z,0.90
2018-12-04T09:28:45.011Z,0.80
2018-12-04T09:31:13.243Z,0.80
2018-12-04T09:33:40.756Z,1.10
2018-12-04T09:36:08.199Z,0.70
2018-12-04T09:38:35.659Z,0.67
2018-12-04T09:41:04.854Z,0.80
2018-12-04T09:43:32.332Z,0.67
2018-12-04T09:45:59.804Z,0.77
2018-12-04T09:48:28.021Z,0.70
2018-12-04T09:50:55.490Z,0.80
2018-12-04T09:53:25.371Z,0.50
2018-12-04T09:55:50.442Z,0.90
2018-12-04T09:58:18.063Z,0.70
2018-12-04T10:00:45.508Z,0.63
2018-12-04T10:03:13.811Z,0.70
2018-12-04T10:05:41.223Z,0.63
2018-12-04T10:08:08.684Z,1.03
2018-12-04T10:10:36.190Z,1.00
2018-12-04T10:13:03.926Z,1.23
2018-12-04T10:15:32.167Z,1.00
2018-12-04T10:17:59.630Z,1.07
2018-12-04T10:20:27.082Z,1.10
2018-12-04T10:22:54.539Z,0.87
2018-12-04T10:25:22.031Z,1.53
2018-12-04T10:27:49.569Z,1.20
2018-12-04T10:30:17.062Z,1.40
2018-12-04T10:32:44.514Z,1.33
2018-12-04T10:35:11.984Z,1.03
2018-12-04T10:37:39.547Z,0.97
2018-12-04T10:40:07.107Z,1.10
2018-12-04T10:42:34.664Z,1.33
2018-12-04T10:45:02.133Z,0.93
2018-12-04T10:47:29.596Z,1.07
2018-12-04T10:49:57.047Z,0.90
2018-12-04T10:52:24.501Z,0.90
2018-12-04T10:54:51.965Z,0.97
2018-12-04T10:57:19.443Z,0.90
2018-12-04T10:59:46.893Z,1.00
2018-12-04T11:02:20.179Z,1.10
2018-12-04T11:04:47.645Z,1.03
2018-12-04T11:07:15.134Z,0.63
2018-12-04T11:09:44.248Z,1.50
2018-12-04T11:12:12.412Z,0.90
2018-12-04T11:14:39.353Z,1.00
2018-12-04T11:17:06.807Z,1.10
2018-12-04T11:19:34.264Z,1.20
2018-12-04T11:22:01.826Z,1.27
2018-12-04T11:24:29.307Z,1.10
2018-12-04T11:26:56.768Z,1.23
2018-12-04T11:29:24.234Z,1.03
2018-12-04T11:31:51.690Z,0.97
2018-12-04T11:34:19.257Z,1.30
2018-12-04T11:36:46.821Z,1.00
2018-12-04T11:39:14.277Z,0.67
2018-12-04T11:41:41.837Z,1.13
2018-12-04T11:44:09.293Z,1.20
2018-12-04T11:46:36.861Z,0.93
2018-12-04T11:49:04.443Z,1.13
2018-12-04T11:51:31.997Z,1.00
2018-12-04T11:53:59.463Z,1.13
2018-12-04T11:56:28.458Z,1.30
2018-12-04T11:58:55.930Z,0.97
2018-12-04T12:01:26.224Z,0.93
2018-12-04T12:03:53.671Z,0.80
2018-12-04T12:06:21.157Z,1.00
2018-12-04T12:08:48.620Z,0.87
2018-12-04T12:11:16.189Z,0.87
2018-12-04T12:13:43.806Z,0.63
2018-12-04T12:16:11.280Z,0.90
2018-12-04T12:18:38.776Z,0.70
2018-12-04T12:21:06.238Z,1.20
2018-12-04T12:23:33.700Z,1.00
2018-12-04T12:26:01.285Z,1.00
2018-12-04T12:28:28.756Z,1.00
2018-12-04T12:30:56.204Z,0.90
2018-12-04T12:33:23.762Z,1.07
2018-12-04T12:35:51.221Z,1.20
2018-12-04T12:38:18.689Z,2.10
2018-12-04T12:40:47.670Z,1.33
2018-12-04T12:43:15.121Z,1.20
2018-12-04T12:45:42.581Z,1.23
2018-12-04T12:48:10.036Z,0.70
2018-12-04T12:50:37.494Z,0.83
2018-12-04T12:53:04.989Z,1.20
2018-12-04T12:55:32.552Z,1.20
2018-12-04T12:57:59.998Z,1.17
2018-12-04T13:00:27.578Z,1.30
2018-12-04T13:02:55.131Z,1.00
2018-12-04T13:05:22.704Z,0.80
2018-12-04T13:07:50.267Z,0.90
2018-12-04T13:10:17.853Z,0.93
2018-12-04T13:12:45.311Z,1.00
2018-12-04T13:15:12.867Z,1.20
2018-12-04T13:17:41.948Z,1.10
2018-12-04T13:20:09.411Z,1.20
2018-12-04T13:22:36.984Z,1.60
2018-12-04T13:25:04.447Z,1.10
2018-12-04T13:27:31.923Z,1.07
2018-12-04T13:29:59.484Z,0.83
2018-12-04T13:32:26.934Z,0.90
2018-12-04T13:34:54.494Z,0.80
2018-12-04T13:37:22.070Z,0.83
2018-12-04T13:39:49.534Z,1.03
2018-12-04T13:42:17.004Z,1.07
2018-12-04T13:44:44.464Z,1.17
2018-12-04T13:47:11.952Z,1.00
2018-12-04T13:49:40.190Z,0.97
2018-12-04T13:52:07.665Z,0.90
2018-12-04T13:54:35.148Z,0.90
2018-12-04T13:57:04.303Z,0.97
2018-12-04T13:59:31.818Z,1.13
2018-12-04T14:01:59.283Z,1.20
2018-12-04T14:04:26.767Z,1.30
2018-12-04T14:06:54.236Z,1.00
2018-12-04T14:09:25.967Z,1.00
2018-12-04T14:11:50.004Z,1.00
2018-12-04T14:14:17.471Z,1.07
2018-12-04T14:16:45.051Z,0.90
2018-12-04T14:19:13.313Z,0.83
2018-12-04T14:21:40.877Z,1.47
2018-12-04T14:24:08.365Z,0.90
2018-12-04T14:26:35.805Z,0.93
2018-12-04T14:29:03.933Z,1.27
2018-12-04T14:31:31.477Z,1.03
2018-12-04T14:33:59.777Z,0.77
2018-12-04T14:36:27.296Z,0.70
2018-12-04T14:38:54.737Z,1.00
2018-12-04T14:41:22.305Z,1.00
2018-12-04T14:43:49.959Z,0.80
2018-12-04T14:46:17.430Z,0.93
2018-12-04T14:48:44.927Z,0.90
2018-12-04T14:51:12.380Z,0.80
2018-12-04T14:53:39.822Z,0.90
2018-12-04T14:56:07.385Z,0.90
2018-12-04T14:58:34.871Z,1.20
2018-12-04T15:01:02.438Z,1.00
2018-12-04T15:03:31.169Z,0.90
2018-12-04T15:05:58.724Z,0.90
2018-12-04T15:08:26.956Z,0.90
2018-12-04T15:10:54.431Z,0.80
2018-12-04T15:13:21.898Z,0.73
2018-12-04T15:15:49.439Z,0.90
2018-12-04T15:18:17.012Z,1.00
2018-12-04T15:20:45.271Z,0.80
2018-12-04T15:23:12.767Z,0.80
2018-12-04T15:25:40.227Z,0.80
2018-12-04T15:28:07.830Z,0.90
2018-12-04T15:30:35.429Z,0.97
2018-12-04T15:33:03.647Z,1.07
2018-12-04T15:35:31.926Z,1.80
2018-12-04T15:38:00.226Z,1.30
2018-12-04T15:40:27.732Z,2.67
2018-12-04T15:42:55.906Z,2.63
2018-12-04T15:45:24.606Z,2.10
2018-12-04T15:47:52.092Z,2.27
2018-12-04T15:50:19.643Z,1.70
2018-12-04T15:52:47.877Z,2.30
2018-12-04T15:55:15.448Z,2.70
2018-12-04T15:57:42.947Z,2.43
2018-12-04T16:00:10.417Z,2.33
2018-12-04T16:02:37.897Z,2.17
2018-12-04T16:05:06.156Z,2.53
2018-12-04T16:07:35.116Z,2.00
2018-12-04T16:10:03.499Z,2.13
2018-12-04T16:12:30.961Z,2.17
2018-12-04T16:14:58.423Z,1.80
2018-12-04T16:17:25.908Z,1.87
2018-12-04T16:19:53.363Z,2.03
2018-12-04T16:22:20.831Z,1.90
2018-12-04T16:24:48.291Z,1.90
2018-12-04T16:27:18.259Z,2.30
2018-12-04T16:29:45.831Z,1.80
2018-12-04T16:32:13.273Z,1.98
2018-12-04T16:34:41.518Z,1.70
2018-12-04T16:37:09.087Z,2.00
2018-12-04T16:39:36.654Z,2.10
2018-12-04T16:42:04.118Z,2.10
2018-12-04T16:44:31.585Z,2.53
2018-12-04T16:46:59.054Z,2.87
2018-12-04T16:49:26.500Z,2.33
2018-12-04T16:51:54.783Z,2.20
2018-12-04T16:54:22.346Z,2.80
2018-12-04T16:56:49.799Z,2.37
2018-12-04T16:59:17.363Z,2.60
2018-12-04T17:01:44.823Z,3.10
2018-12-04T17:04:12.299Z,3.10
2018-12-04T17:06:39.762Z,2.77
2018-12-04T17:09:07.989Z,2.20
2018-12-04T17:11:35.452Z,2.23
2018-12-04T17:14:03.879Z,2.30
2018-12-04T17:16:31.325Z,2.40
2018-12-04T17:18:58.786Z,2.70
2018-12-04T17:21:26.248Z,2.50
2018-12-04T17:23:53.719Z,2.60
2018-12-04T17:26:21.175Z,2.37
2018-12-04T17:28:48.630Z,2.90
2018-12-04T17:31:16.078Z,2.40
2018-12-04T17:33:43.534Z,2.07
2018-12-04T17:36:10.995Z,2.57
2018-12-04T17:38:38.494Z,2.63
2018-12-04T17:41:05.957Z,2.10
2018-12-04T17:43:33.419Z,1.77
2018-12-04T17:46:00.985Z,2.13
2018-12-04T17:48:28.545Z,2.40
2018-12-04T17:50:56.010Z,2.03
2018-12-04T17:53:23.483Z,2.07
2018-12-04T17:55:52.457Z,2.33
2018-12-04T17:58:20.934Z,2.03
2018-12-04T18:00:48.399Z,2.47
2018-12-04T18:03:15.852Z,2.00
2018-12-04T18:05:43.320Z,2.13
2018-12-04T18:08:10.803Z,2.10
2018-12-04T18:10:38.360Z,2.07
2018-12-04T18:13:05.827Z,2.47
2018-12-04T18:15:33.405Z,3.00
2018-12-04T18:18:00.760Z,2.37
2018-12-04T18:20:28.229Z,2.70
2018-12-04T18:22:55.671Z,2.73
2018-12-04T18:25:23.144Z,2.43
2018-12-04T18:27:50.698Z,2.50
2018-12-04T18:30:18.194Z,2.87
2018-12-04T18:32:46.414Z,2.10
2018-12-04T18:35:13.918Z,2.60
2018-12-04T18:37:41.383Z,3.37
2018-12-04T18:40:08.835Z,3.17
2018-12-04T18:42:36.304Z,2.07
2018-12-04T18:45:03.976Z,2.33
2018-12-04T18:47:31.429Z,2.67
2018-12-04T18:49:59.661Z,2.07
2018-12-04T18:52:27.124Z,2.00
2018-12-04T18:54:54.594Z,2.73
2018-12-04T18:57:22.068Z,2.97
2018-12-04T18:59:49.534Z,3.17
2018-12-04T19:02:17.005Z,3.27
2018-12-04T19:04:44.569Z,2.80
2018-12-04T19:07:12.039Z,2.47
2018-12-04T19:09:40.319Z,2.90
2018-12-04T19:12:07.880Z,2.77
2018-12-04T19:14:35.436Z,3.03
2018-12-04T19:17:03.918Z,2.80
2018-12-04T19:19:31.373Z,3.00
2018-12-04T19:21:58.833Z,2.80
2018-12-04T19:24:26.295Z,2.40
2018-12-04T19:26:53.864Z,3.17
2018-12-04T19:29:22.461Z,2.95
2018-12-04T19:31:49.923Z,2.50
2018-12-04T19:34:17.376Z,2.80
2018-12-04T19:36:46.498Z,2.90
2018-12-04T19:39:14.716Z,2.97
2018-12-04T19:41:42.175Z,2.93
2018-12-04T19:44:09.695Z,2.83
2018-12-04T19:46:37.150Z,2.50
2018-12-04T19:49:04.589Z,2.73
2018-12-04T19:51:32.077Z,2.63
2018-12-04T19:53:59.634Z,2.70
2018-12-04T19:56:27.126Z,2.67
2018-12-04T19:58:55.357Z,3.40
2018-12-04T20:01:22.822Z,2.95
2018-12-04T20:03:50.285Z,3.00
2018-12-04T20:06:17.737Z,3.40
2018-12-04T20:08:52.203Z,2.97
2018-12-04T20:11:19.142Z,2.53
2018-12-04T20:13:46.598Z,2.40
2018-12-04T20:16:14.154Z,3.10
2018-12-04T20:18:41.625Z,2.57
2018-12-04T20:21:09.082Z,2.20
2018-12-04T20:23:36.550Z,2.57
2018-12-04T20:26:04.107Z,2.80
2018-12-04T20:28:31.579Z,3.00
2018-12-04T20:30:59.805Z,2.73
2018-12-04T20:33:27.273Z,3.10
2018-12-04T20:35:54.734Z,3.27
2018-12-04T20:38:22.193Z,3.23
2018-12-04T20:40:49.648Z,2.47
2018-12-04T20:43:17.100Z,3.13
2018-12-04T20:45:45.318Z,3.60
2018-12-04T20:48:12.789Z,2.97
2018-12-04T20:50:40.366Z,3.53
2018-12-04T20:53:07.938Z,2.60
2018-12-04T20:55:35.490Z,2.97
2018-12-04T20:58:04.451Z,2.20
2018-12-04T21:00:31.964Z,2.33
2018-12-04T21:02:59.529Z,2.63
2018-12-04T21:05:27.072Z,3.20
2018-12-04T21:07:54.650Z,2.77
2018-12-04T21:10:23.633Z,3.20
2018-12-04T21:12:51.099Z,2.57
2018-12-04T21:15:18.579Z,2.90
2018-12-04T21:17:46.124Z,3.23
2018-12-04T21:20:13.692Z,2.93
2018-12-04T21:22:41.255Z,2.83
2018-12-04T21:25:08.725Z,3.17
2018-12-04T21:27:42.015Z,3.33
2018-12-04T21:30:15.762Z,3.23
2018-12-04T21:32:48.365Z,2.90
2018-12-04T21:35:21.439Z,3.40
2018-12-04T21:37:54.738Z,3.87
2018-12-04T21:40:27.843Z,3.50
2018-12-04T21:45:58.076Z,4.05
2018-12-04T21:48:25.520Z,3.73
2018-12-04T21:50:53.737Z,4.20
2018-12-04T21:53:21.202Z,3.83
2018-12-04T21:55:48.769Z,3.70
2018-12-04T21:58:16.233Z,4.03
2018-12-04T22:00:43.699Z,2.97
2018-12-04T22:03:11.162Z,3.30
2018-12-04T22:05:38.609Z,2.63
2018-12-04T22:08:06.071Z,2.93
2018-12-04T22:10:33.639Z,3.83
2018-12-04T22:13:01.097Z,3.67
2018-12-04T22:15:28.540Z,3.30
2018-12-04T22:17:55.991Z,3.17
2018-12-04T22:20:23.445Z,2.87
2018-12-04T22:22:50.905Z,2.90
2018-12-04T22:25:18.383Z,2.93
2018-12-04T22:27:45.830Z,3.30
2018-12-04T22:30:13.300Z,3.40
2018-12-04T22:32:40.785Z,2.77
2018-12-04T22:35:08.273Z,3.23
2018-12-04T22:37:35.825Z,2.83
2018-12-04T22:40:04.486Z,3.23
2018-12-04T22:42:31.973Z,3.50
2018-12-04T22:45:00.210Z,2.80
2018-12-04T22:47:27.658Z,3.67
2018-12-04T22:49:55.144Z,3.30
2018-12-04T22:52:22.610Z,3.67
2018-12-04T22:54:50.067Z,3.30
2018-12-04T22:57:17.541Z,3.10
2018-12-04T22:59:44.991Z,3.50
2018-12-04T23:02:12.449Z,3.50
2018-12-04T23:04:39.912Z,3.03
2018-12-04T23:07:07.369Z,3.53
2018-12-04T23:09:34.871Z,2.60
2018-12-04T23:12:02.395Z,3.50
2018-12-04T23:14:30.596Z,3.70
2018-12-04T23:16:58.075Z,3.27
2018-12-04T23:19:26.305Z,3.60
2018-12-04T23:21:53.786Z,3.27
2018-12-04T23:24:21.251Z,3.60
2018-12-04T23:26:48.743Z,3.07
2018-12-04T23:29:16.632Z,3.27
2018-12-04T23:31:44.083Z,3.30
2018-12-04T23:34:11.552Z,3.40
2018-12-04T23:36:39.153Z,3.17
2018-12-04T23:39:06.670Z,3.07
2018-12-04T23:41:34.227Z,3.20
2018-12-04T23:44:01.691Z,2.97
2018-12-04T23:46:29.250Z,3.17
2018-12-04T23:48:56.709Z,3.47
2018-12-04T23:51:24.161Z,3.70
2018-12-04T23:53:51.646Z,3.23
2018-12-04T23:56:19.092Z,3.73
2018-12-04T23:58:46.615Z,3.13
